createdAt,value
2016-08-18T15:26:25.231Z,25.84
2016-08-18T15:29:03.104Z,25.67
2016-08-18T15:30:16.090Z,25.71
2016-08-18T15:31:29.073Z,25.7
2016-08-18T15:32:42.058Z,25.59
2016-08-18T15:33:55.048Z,25.7
2016-08-18T15:35:08.362Z,25.7
2016-08-18T15:36:21.523Z,25.57
2016-08-18T15:37:34.512Z,25.74
2016-08-18T15:38:47.512Z,25.56
2016-08-18T15:40:00.495Z,25.7
2016-08-18T15:41:13.486Z,25.59
2016-08-18T15:42:26.686Z,25.56
2016-08-18T15:43:39.674Z,25.59
2016-08-18T15:44:52.859Z,25.63
2016-08-18T15:46:05.857Z,25.57
2016-08-18T15:47:19.244Z,25.51
2016-08-18T15:48:32.236Z,25.59
2016-08-18T15:49:45.225Z,25.44
2016-08-18T15:50:58.209Z,25.54
2016-08-18T15:52:11.202Z,25.44
2016-08-18T15:53:24.196Z,25.51
2016-08-18T15:54:37.195Z,25.59
2016-08-18T15:55:50.181Z,25.52
2016-08-18T15:57:03.211Z,25.49
2016-08-18T15:58:16.202Z,25.54
2016-08-18T15:59:29.199Z,25.54
2016-08-18T16:00:42.187Z,25.6
2016-08-18T16:01:55.200Z,25.51
2016-08-18T16:03:08.183Z,25.56
2016-08-18T16:04:21.181Z,25.52
2016-08-18T16:05:34.369Z,25.56
2016-08-18T16:06:47.352Z,25.59
2016-08-18T16:08:00.335Z,25.6
2016-08-18T16:09:13.366Z,25.54
2016-08-18T16:10:26.364Z,25.45
2016-08-18T16:11:39.370Z,25.47
2016-08-18T16:12:52.567Z,25.44
2016-08-18T16:14:05.563Z,25.47
2016-08-18T16:15:18.756Z,25.45
2016-08-18T16:16:31.751Z,25.44
2016-08-18T16:17:44.939Z,25.48
2016-08-18T16:18:57.929Z,25.39
2016-08-18T16:20:10.931Z,25.44
2016-08-18T16:21:23.929Z,25.44
2016-08-18T16:22:36.912Z,25.45
2016-08-18T16:23:49.899Z,25.42
2016-08-18T16:25:02.885Z,25.42
2016-08-18T16:26:15.875Z,25.42
2016-08-18T16:27:29.073Z,25.49
2016-08-18T16:28:42.262Z,25.44
2016-08-18T16:29:55.250Z,25.44
2016-08-18T16:31:08.239Z,25.44
2016-08-18T16:32:21.240Z,25.45
2016-08-18T16:33:34.234Z,25.34
2016-08-18T16:34:47.429Z,25.32
2016-08-18T16:36:00.560Z,25.37
2016-08-18T16:37:13.549Z,25.41
2016-08-18T16:38:26.540Z,25.37
2016-08-18T16:39:39.731Z,25.39
2016-08-18T16:40:52.923Z,25.34
2016-08-18T16:42:05.908Z,25.39
2016-08-18T16:43:18.909Z,25.39
2016-08-18T16:44:31.895Z,25.41
2016-08-18T16:45:44.892Z,25.37
2016-08-18T16:46:57.911Z,25.27
2016-08-18T16:48:10.897Z,25.19
2016-08-18T16:49:23.880Z,25.2
2016-08-18T16:50:36.883Z,25.14
2016-08-18T16:51:49.877Z,25.11
2016-08-18T16:53:02.871Z,25.02
2016-08-18T16:54:15.875Z,24.89
2016-08-18T16:55:28.873Z,24.93
2016-08-18T16:56:41.859Z,24.92
2016-08-18T16:57:54.842Z,24.9
2016-08-18T16:59:07.834Z,24.89
2016-08-18T17:00:21.023Z,24.74
2016-08-18T17:01:34.012Z,24.77
2016-08-18T17:02:47.000Z,24.67
2016-08-18T17:04:00.189Z,24.64
2016-08-18T17:05:13.183Z,24.61
2016-08-18T17:06:26.166Z,24.69
2016-08-18T17:07:39.362Z,24.64
2016-08-18T17:08:52.350Z,24.56
2016-08-18T17:10:05.342Z,24.56
2016-08-18T17:11:18.331Z,24.55
2016-08-18T17:12:31.322Z,24.44
2016-08-18T17:13:44.321Z,24.37
2016-08-18T17:14:57.302Z,24.33
2016-08-18T17:16:10.277Z,24.33
2016-08-18T17:17:23.473Z,24.29
2016-08-18T17:18:36.466Z,24.19
2016-08-18T17:19:49.450Z,24.11
2016-08-18T17:21:02.444Z,24.08
2016-08-18T17:22:15.628Z,24
2016-08-18T17:23:28.607Z,23.94
2016-08-18T17:24:41.596Z,23.85
2016-08-18T17:25:54.589Z,23.87
2016-08-18T17:27:07.583Z,23.81
2016-08-18T17:28:20.566Z,23.82
2016-08-18T17:29:33.558Z,23.85
2016-08-18T17:30:46.538Z,23.85
2016-08-18T17:31:59.525Z,23.67
2016-08-18T17:33:12.516Z,23.59
2016-08-18T17:34:25.498Z,23.52
2016-08-18T17:35:38.496Z,23.53
2016-08-18T17:36:51.488Z,23.53
2016-08-18T17:38:04.667Z,23.52
2016-08-18T17:39:17.657Z,23.59
2016-08-18T17:40:30.642Z,23.38
2016-08-18T17:41:43.638Z,23.42
2016-08-18T17:42:56.632Z,23.4
2016-08-18T17:44:10.015Z,23.41
2016-08-18T17:45:23.207Z,23.37
2016-08-18T17:46:36.200Z,23.29
2016-08-18T17:47:49.195Z,23.28
2016-08-18T17:49:02.185Z,23.16
2016-08-18T17:50:15.182Z,23.15
2016-08-18T17:51:28.176Z,23.1
2016-08-18T17:52:41.172Z,23.15
2016-08-18T17:53:54.158Z,23.12
2016-08-18T17:55:07.140Z,23.1
2016-08-18T17:56:20.131Z,23.07
2016-08-18T17:57:33.117Z,23.06
2016-08-18T17:58:46.101Z,22.94
2016-08-18T17:59:59.109Z,22.89
2016-08-18T18:01:12.099Z,22.84
2016-08-18T18:02:25.090Z,22.85
2016-08-18T18:03:38.083Z,22.88
2016-08-18T18:04:51.068Z,22.86
2016-08-18T18:06:04.080Z,22.84
2016-08-18T18:07:17.059Z,22.81
2016-08-18T18:08:30.042Z,22.81
2016-08-18T18:09:43.235Z,22.85
2016-08-18T18:10:56.230Z,22.78
2016-08-18T18:12:09.222Z,22.75
2016-08-18T18:13:22.206Z,22.75
2016-08-18T18:14:35.198Z,22.66
2016-08-18T18:15:48.195Z,22.67
2016-08-18T18:17:01.330Z,22.63
2016-08-18T18:18:14.327Z,22.66
2016-08-18T18:19:27.316Z,22.76
2016-08-18T18:20:40.306Z,22.66
2016-08-18T18:21:53.317Z,22.63
2016-08-18T18:23:06.296Z,22.66
2016-08-18T18:24:19.284Z,22.63
2016-08-18T18:25:32.275Z,22.52
2016-08-18T18:26:45.271Z,22.51
2016-08-18T18:27:58.261Z,22.46
2016-08-18T18:29:11.241Z,22.38
2016-08-18T18:30:24.229Z,22.36
2016-08-18T18:31:37.421Z,22.29
2016-08-18T18:32:50.410Z,22.3
2016-08-18T18:34:03.410Z,22.23
2016-08-18T18:35:16.387Z,22.15
2016-08-18T18:36:29.377Z,22.18
2016-08-18T18:37:42.360Z,22.05
2016-08-18T18:38:55.342Z,22.05
2016-08-18T18:40:08.538Z,22.02
2016-08-18T18:41:21.738Z,22
2016-08-18T18:42:34.943Z,21.92
2016-08-18T18:43:47.939Z,22.04
2016-08-18T18:45:00.938Z,21.86
2016-08-18T18:46:13.920Z,21.85
2016-08-18T18:47:26.905Z,21.8
2016-08-18T18:48:39.901Z,21.77
2016-08-18T18:49:52.895Z,21.76
2016-08-18T18:51:05.879Z,21.67
2016-08-18T18:52:18.879Z,21.61
2016-08-18T18:53:31.874Z,21.51
2016-08-18T18:54:44.864Z,21.38
2016-08-18T18:55:57.848Z,21.3
2016-08-18T18:57:10.848Z,21.22
2016-08-18T18:58:24.033Z,21.25
2016-08-18T18:59:37.018Z,21.18
2016-08-18T19:00:50.003Z,21.19
2016-08-18T19:02:02.990Z,21.03
2016-08-18T19:03:15.981Z,21.19
2016-08-18T19:04:29.169Z,20.97
2016-08-18T19:05:42.160Z,21
2016-08-18T19:06:55.348Z,20.98
2016-08-18T19:08:08.334Z,20.96
2016-08-18T19:09:21.311Z,20.88
2016-08-18T19:10:34.545Z,20.86
2016-08-18T19:11:47.527Z,20.9
2016-08-18T19:13:00.530Z,20.79
2016-08-18T19:14:13.516Z,20.81
2016-08-18T19:15:26.499Z,20.74
2016-08-18T19:16:39.684Z,20.74
2016-08-18T19:17:52.668Z,20.76
2016-08-18T19:19:05.853Z,20.57
2016-08-18T19:20:18.834Z,20.51
2016-08-18T19:21:32.024Z,20.57
2016-08-18T19:22:45.018Z,20.54
2016-08-18T19:23:58.207Z,20.57
2016-08-18T19:25:11.199Z,20.49
2016-08-18T19:26:24.185Z,20.41
2016-08-18T19:27:37.165Z,20.38
2016-08-18T19:28:50.168Z,20.34
2016-08-18T19:30:03.176Z,20.2
2016-08-18T19:31:16.161Z,20.08
2016-08-18T19:32:29.343Z,20.08
2016-08-18T19:33:42.537Z,20.04
2016-08-18T19:34:55.522Z,19.97
2016-08-18T19:36:08.537Z,19.9
2016-08-18T19:37:21.515Z,19.85
2016-08-18T19:38:34.521Z,19.8
2016-08-18T19:39:47.511Z,19.83
2016-08-18T19:41:00.499Z,19.86
2016-08-18T19:42:13.483Z,19.75
2016-08-18T19:43:26.463Z,19.75
2016-08-18T19:44:39.441Z,19.83
2016-08-18T19:45:52.440Z,19.75
2016-08-18T19:47:05.421Z,19.67
2016-08-18T19:48:18.410Z,19.63
2016-08-18T19:49:31.409Z,19.68
2016-08-18T19:50:44.402Z,19.68
2016-08-18T19:51:57.382Z,19.61
2016-08-18T19:53:10.385Z,19.63
2016-08-18T19:54:23.573Z,19.49
2016-08-18T19:55:36.557Z,19.55
2016-08-18T19:56:49.545Z,19.38
2016-08-18T19:58:02.530Z,19.45
2016-08-18T19:59:15.525Z,19.49
2016-08-18T20:00:28.510Z,19.49
2016-08-18T20:01:41.500Z,19.4
2016-08-18T20:02:54.502Z,19.23
2016-08-18T20:04:07.531Z,19.25
2016-08-18T20:05:20.524Z,19.12
2016-08-18T20:06:33.509Z,19.16
2016-08-18T20:07:46.492Z,19.09
2016-08-18T20:08:59.477Z,19
2016-08-18T20:10:12.508Z,18.79
2016-08-18T20:11:25.494Z,18.84
2016-08-18T20:12:38.472Z,18.82
2016-08-18T20:13:51.671Z,18.76
2016-08-18T20:15:04.859Z,18.71
2016-08-18T20:16:17.841Z,18.72
2016-08-18T20:17:31.035Z,18.66
2016-08-18T20:18:44.015Z,18.76
2016-08-18T20:19:57.210Z,18.74
2016-08-18T20:21:10.214Z,18.78
2016-08-18T20:22:23.197Z,18.78
2016-08-18T20:23:36.387Z,18.72
2016-08-18T20:24:49.777Z,18.75
2016-08-18T20:26:02.962Z,18.68
2016-08-18T20:27:15.946Z,18.74
2016-08-18T20:28:28.935Z,18.75
2016-08-18T20:29:42.120Z,18.74
2016-08-18T20:30:55.097Z,18.66
2016-08-18T20:32:08.092Z,18.57
2016-08-18T20:33:21.084Z,18.54
2016-08-18T20:34:34.077Z,18.51
2016-08-18T20:35:47.063Z,18.56
2016-08-18T20:37:00.057Z,18.51
2016-08-18T20:38:13.040Z,18.42
2016-08-18T20:39:26.036Z,18.32
2016-08-18T20:40:39.218Z,18.32
2016-08-18T20:41:52.413Z,18.05
2016-08-18T20:43:05.772Z,18.01
2016-08-18T20:44:18.751Z,18.01
2016-08-18T20:45:31.735Z,17.88
2016-08-18T20:46:44.918Z,17.92
2016-08-18T20:47:57.910Z,17.86
2016-08-18T20:49:10.887Z,17.83
2016-08-18T20:50:23.870Z,17.81
2016-08-18T20:51:36.859Z,17.83
2016-08-18T20:52:50.036Z,17.84
2016-08-18T20:54:03.015Z,17.88
2016-08-18T20:55:16.099Z,17.94
2016-08-18T20:56:29.084Z,17.94
2016-08-18T20:57:42.058Z,17.96
2016-08-18T20:58:55.037Z,17.87
2016-08-18T21:00:08.026Z,17.95
2016-08-18T21:01:21.008Z,17.9
2016-08-18T21:02:34.396Z,17.81
2016-08-18T21:03:47.378Z,17.81
2016-08-18T21:05:00.364Z,17.8
2016-08-18T21:06:13.483Z,17.74
2016-08-18T21:07:26.670Z,17.69
2016-08-18T21:08:39.657Z,17.77
2016-08-18T21:09:52.887Z,17.71
2016-08-18T21:11:05.872Z,17.71
2016-08-18T21:12:18.854Z,17.71
2016-08-18T21:13:31.849Z,17.69
2016-08-18T21:14:44.824Z,17.68
2016-08-18T21:15:57.808Z,17.65
2016-08-18T21:17:10.789Z,17.68
2016-08-18T21:18:24.180Z,17.52
2016-08-18T21:19:37.164Z,17.5
2016-08-18T21:20:50.142Z,17.54
2016-08-18T21:22:03.134Z,17.55
2016-08-18T21:23:16.124Z,17.55
2016-08-18T21:24:29.109Z,17.6
2016-08-18T21:25:42.099Z,17.55
2016-08-18T21:26:55.073Z,17.55
2016-08-18T21:28:08.064Z,17.5
2016-08-18T21:29:21.044Z,17.49
2016-08-18T21:30:34.026Z,17.46
2016-08-18T21:31:47.008Z,17.42
2016-08-18T21:32:59.987Z,17.45
2016-08-18T21:34:12.978Z,17.47
2016-08-18T21:35:25.971Z,17.5
2016-08-18T21:36:38.954Z,17.4
2016-08-18T21:37:51.941Z,17.38
2016-08-18T21:39:04.924Z,17.32
2016-08-18T21:40:17.918Z,17.42
2016-08-18T21:41:31.102Z,17.38
2016-08-18T21:42:44.092Z,17.38
2016-08-18T21:43:57.075Z,17.36
2016-08-18T21:45:10.060Z,17.36
2016-08-18T21:46:23.246Z,17.38
2016-08-18T21:47:36.214Z,17.31
2016-08-18T21:48:49.183Z,17.27
2016-08-18T21:50:02.171Z,17.25
2016-08-18T21:51:15.156Z,17.27
2016-08-18T21:52:28.379Z,17.24
2016-08-18T21:53:41.369Z,17.24
2016-08-18T21:54:54.347Z,17.15
2016-08-18T21:56:07.319Z,17.1
2016-08-18T21:57:20.337Z,17.2
2016-08-18T21:58:33.325Z,17.06
2016-08-18T21:59:46.302Z,17.05
2016-08-18T22:00:59.293Z,17.03
2016-08-18T22:02:12.264Z,16.97
2016-08-18T22:03:25.249Z,17.03
2016-08-18T22:04:38.224Z,16.92
2016-08-18T22:05:51.422Z,16.95
2016-08-18T22:07:04.403Z,16.92
2016-08-18T22:08:17.399Z,16.9
2016-08-18T22:09:30.400Z,16.97
2016-08-18T22:10:43.379Z,16.88
2016-08-18T22:11:56.358Z,16.9
2016-08-18T22:13:09.341Z,16.8
2016-08-18T22:14:22.313Z,16.73
2016-08-18T22:15:35.294Z,16.8
2016-08-18T22:16:48.268Z,16.7
2016-08-18T22:18:01.255Z,16.73
2016-08-18T22:19:14.230Z,16.72
2016-08-18T22:20:27.214Z,16.67
2016-08-18T22:21:40.196Z,16.69
2016-08-18T22:22:53.178Z,16.77
2016-08-18T22:24:06.156Z,16.7
2016-08-18T22:25:19.146Z,16.65
2016-08-18T22:26:32.324Z,16.59
2016-08-18T22:27:45.708Z,16.65
2016-08-18T22:28:58.704Z,16.69
2016-08-18T22:30:11.683Z,16.63
2016-08-18T22:31:24.663Z,16.65
2016-08-18T22:32:37.654Z,16.62
2016-08-18T22:33:50.637Z,16.67
2016-08-18T22:35:03.612Z,16.65
2016-08-18T22:36:17.004Z,16.66
2016-08-18T22:37:29.987Z,16.52
2016-08-18T22:38:42.977Z,16.59
2016-08-18T22:39:55.963Z,16.66
2016-08-18T22:41:08.949Z,16.65
2016-08-18T22:42:21.933Z,16.65
2016-08-18T22:43:34.916Z,16.63
2016-08-18T22:44:47.903Z,16.52
2016-08-18T22:46:00.886Z,16.58
2016-08-18T22:47:13.865Z,16.57
2016-08-18T22:48:26.845Z,16.48
2016-08-18T22:49:39.832Z,16.33
2016-08-18T22:50:52.821Z,16.39
2016-08-18T22:52:05.803Z,16.4
2016-08-18T22:53:18.794Z,16.42
2016-08-18T22:54:31.790Z,16.36
2016-08-18T22:55:44.771Z,16.39
2016-08-18T22:56:57.766Z,16.39
2016-08-18T22:58:10.743Z,16.34
2016-08-18T22:59:23.717Z,16.34
2016-08-18T23:00:36.703Z,16.33
2016-08-18T23:01:49.680Z,16.29
2016-08-18T23:03:02.675Z,16.25
2016-08-18T23:04:15.646Z,16.18
2016-08-18T23:05:28.633Z,16.14
2016-08-18T23:06:41.605Z,16.17
2016-08-18T23:07:54.594Z,16.04
2016-08-18T23:09:07.595Z,16.11
2016-08-18T23:10:20.600Z,15.98
2016-08-18T23:11:33.589Z,15.93
2016-08-18T23:12:46.563Z,15.92
2016-08-18T23:13:59.550Z,15.92
2016-08-18T23:15:12.740Z,15.83
2016-08-18T23:16:25.720Z,15.91
2016-08-18T23:17:38.921Z,15.88
2016-08-18T23:18:51.900Z,15.84
2016-08-18T23:20:04.879Z,15.84
2016-08-18T23:21:17.864Z,15.84
2016-08-18T23:22:30.850Z,15.78
2016-08-18T23:23:44.035Z,15.86
2016-08-18T23:24:57.041Z,15.81
2016-08-18T23:26:10.223Z,15.75
2016-08-18T23:27:23.203Z,15.8
2016-08-18T23:28:36.394Z,15.7
2016-08-18T23:29:49.370Z,15.74
2016-08-18T23:31:02.351Z,15.75
2016-08-18T23:32:15.325Z,15.68
2016-08-18T23:33:28.318Z,15.77
2016-08-18T23:34:41.298Z,15.68
2016-08-18T23:35:54.271Z,15.6
2016-08-18T23:37:07.246Z,15.63
2016-08-18T23:38:20.227Z,15.55
2016-08-18T23:39:33.202Z,15.58
2016-08-18T23:40:46.179Z,15.55
2016-08-18T23:41:59.154Z,15.53
2016-08-18T23:43:12.137Z,15.52
2016-08-18T23:44:25.129Z,15.35
2016-08-18T23:45:38.109Z,15.44
2016-08-18T23:46:51.088Z,15.34
2016-08-18T23:48:04.068Z,15.34
2016-08-18T23:49:17.042Z,15.35
2016-08-18T23:50:30.027Z,15.34
2016-08-18T23:51:42.999Z,15.27
2016-08-18T23:52:55.997Z,15.19
2016-08-18T23:54:09.176Z,15.19
2016-08-18T23:55:22.157Z,15.15
2016-08-18T23:56:35.141Z,15.16
2016-08-18T23:57:48.116Z,15.1
2016-08-18T23:59:01.086Z,15.16
